Time;durP1;ratioP1;P1;durP2;ratioP2;P2;SDS_P1;SDS_P2;PMS_P1;PMS_P2;Temp;Humidity;BMP_temperature;BMP_pressure;BME280_temperature;BME280_humidity;BME280_pressure;Samples;Min_cycle;Max_cycle;Signal;HPM_P1;HPM_P2
2022/05/12 00:01:47;;;;;;;14.63;4.50;;;;;;;19.66;40.77;98996.19;5015177;28;20439;-49
2022/05/12 00:04:13;;;;;;;14.48;2.97;;;;;;;19.62;41.08;98996.94;5015130;28;20435;-48
2022/05/12 00:06:38;;;;;;;14.02;4.00;;;;;;;19.57;41.07;99000.34;5015074;28;20530;-49
2022/05/12 00:09:04;;;;;;;4.63;2.38;;;;;;;19.55;41.43;98991.81;5015069;28;20026;-49
2022/05/12 00:11:30;;;;;;;10.38;2.85;;;;;;;19.55;41.42;98991.81;5015023;28;20018;-49
2022/05/12 00:13:56;;;;;;;9.57;2.40;;;;;;;19.52;41.61;98981.69;5014957;28;20148;-50
2022/05/12 00:16:22;;;;;;;12.93;2.67;;;;;;;19.48;41.85;99023.97;4997257;28;20018;-48
2022/05/12 00:18:48;;;;;;;13.52;3.42;;;;;;;19.44;42.17;98982.16;5014933;28;20021;-48
2022/05/12 00:21:14;;;;;;;10.93;2.40;;;;;;;19.39;42.34;98985.53;5014836;28;20037;-49
2022/05/12 00:23:40;;;;;;;11.05;3.05;;;;;;;19.41;42.54;98977.31;4997146;28;20018;-49
2022/05/12 00:26:06;;;;;;;13.38;3.58;;;;;;;19.48;42.42;99001.88;4997015;28;20033;-49
2022/05/12 00:28:32;;;;;;;10.13;2.40;;;;;;;19.43;42.70;98991.97;4997014;28;20092;-49
2022/05/12 00:30:58;;;;;;;16.33;2.70;;;;;;;19.39;42.69;98979.41;5014701;28;20415;-49
2022/05/12 00:33:27;;;;;;;7.60;2.50;;;;;;;19.38;42.62;98996.44;5014618;28;20036;-48
2022/05/12 00:35:56;;;;;;;9.00;2.22;;;;;;;19.32;42.82;99003.56;5014620;28;20040;-49
2022/05/12 00:38:23;;;;;;;5.90;2.10;;;;;;;19.30;43.07;98971.09;5014450;28;20049;-49
2022/05/12 00:40:49;;;;;;;9.52;2.67;;;;;;;19.28;43.26;98997.94;5014493;28;20040;-49
2022/05/12 00:43:45;;;;;;;6.55;2.38;;;;;;;19.26;43.63;98977.97;4996715;28;20551;-49
2022/05/12 00:46:17;;;;;;;8.00;2.28;;;;;;;19.25;43.73;98990.44;4996864;28;20471;-49
2022/05/12 00:48:45;;;;;;;6.95;2.22;;;;;;;19.29;43.88;98978.25;5014383;28;20113;-49
2022/05/12 00:51:14;;;;;;;7.20;2.15;;;;;;;19.29;43.80;98951.63;4996675;28;20145;-49
2022/05/12 00:53:41;;;;;;;10.88;2.17;;;;;;;19.20;43.87;98966.44;5014054;28;20061;-49
2022/05/12 00:56:13;;;;;;;8.57;2.88;;;;;;;19.13;44.53;98963.16;4996612;28;20030;-49
2022/05/12 00:58:39;;;;;;;10.20;2.22;;;;;;;19.14;44.38;98951.50;5014234;28;20105;-49
2022/05/12 01:01:09;;;;;;;11.93;2.20;;;;;;;19.10;44.60;98967.16;4996460;28;20052;-48
2022/05/12 01:03:39;;;;;;;11.38;3.53;;;;;;;19.06;45.08;98967.91;4996444;28;20021;-49
2022/05/12 01:06:05;;;;;;;14.27;2.33;;;;;;;19.05;44.91;98984.91;5014047;28;20539;-49
2022/05/12 01:08:31;;;;;;;12.63;3.17;;;;;;;19.03;45.25;98979.81;4996301;28;20025;-49
2022/05/12 01:11:03;;;;;;;12.10;2.92;;;;;;;19.06;44.78;98994.50;4996298;28;20041;-50
2022/05/12 01:13:31;;;;;;;12.05;3.75;;;;;;;19.07;44.77;98980.13;5013879;28;20060;-49
2022/05/12 01:16:00;;;;;;;8.30;2.83;;;;;;;19.10;44.78;98985.75;4996250;28;20030;-49
2022/05/12 01:18:28;;;;;;;11.18;2.75;;;;;;;19.12;44.63;98977.53;4996152;28;20030;-49
2022/05/12 01:20:54;;;;;;;6.45;2.10;;;;;;;19.19;44.27;98982.66;4996110;28;20034;-49
2022/05/12 01:23:24;;;;;;;9.95;3.20;;;;;;;19.14;44.60;98986.88;4996009;28;20080;-49
2022/05/12 01:25:50;;;;;;;5.75;2.50;;;;;;;19.12;44.59;98998.81;5013635;28;20030;-49
2022/05/12 01:28:16;;;;;;;9.73;2.35;;;;;;;19.14;44.64;98972.78;5013622;28;20023;-48
2022/05/12 01:30:42;;;;;;;9.40;2.78;;;;;;;19.12;44.64;98983.66;4995860;28;20034;-49
2022/05/12 01:33:07;;;;;;;10.57;2.97;;;;;;;19.10;44.70;98985.75;4995824;28;20474;-49
2022/05/12 01:35:33;;;;;;;8.18;2.67;;;;;;;19.16;44.78;98981.31;4995746;28;20034;-49
2022/05/12 01:37:59;;;;;;;10.40;2.80;;;;;;;19.20;44.37;98985.09;5012928;28;20018;-49
2022/05/12 01:40:25;;;;;;;10.68;3.83;;;;;;;19.17;44.43;98998.88;4995738;28;20026;-49
2022/05/12 01:42:53;;;;;;;10.82;2.80;;;;;;;19.21;44.68;98993.84;4995621;28;20504;-48
2022/05/12 01:45:19;;;;;;;10.85;3.58;;;;;;;19.26;44.38;99000.06;5011820;28;20068;-48
2022/05/12 01:47:46;;;;;;;26.13;6.72;;;;;;;19.28;44.10;99016.56;4995618;28;20022;-49
2022/05/12 01:50:14;;;;;;;9.80;3.00;;;;;;;19.33;44.30;99010.50;4995567;28;20037;-48
2022/05/12 01:52:43;;;;;;;10.88;2.75;;;;;;;19.41;44.21;99004.72;4995553;28;20025;-48
2022/05/12 01:55:11;;;;;;;10.35;3.03;;;;;;;19.45;43.92;99023.66;5012933;28;20072;-48
2022/05/12 01:57:37;;;;;;;16.17;3.25;;;;;;;19.39;44.14;99022.00;5013123;28;20057;-49
2022/05/12 02:00:06;;;;;;;9.85;3.15;;;;;;;19.38;44.48;99021.22;5012967;28;20049;-48
2022/05/12 02:02:33;;;;;;;11.38;2.33;;;;;;;19.44;43.88;99022.06;4995387;28;20032;-49
2022/05/12 02:04:59;;;;;;;9.90;2.45;;;;;;;19.50;44.06;99027.19;5012891;28;20026;-49
2022/05/12 02:07:24;;;;;;;11.55;2.58;;;;;;;19.60;43.68;99031.00;5012887;28;20406;-48
2022/05/12 02:09:50;;;;;;;12.45;3.33;;;;;;;19.63;43.43;99041.94;5012864;28;20017;-48
2022/05/12 02:12:16;;;;;;;8.98;3.17;;;;;;;19.56;43.54;99046.69;4995160;28;20503;-49
2022/05/12 02:14:42;;;;;;;7.88;2.50;;;;;;;19.51;43.92;99038.63;4995151;28;20029;-49
2022/05/12 02:17:07;;;;;;;11.80;2.90;;;;;;;19.49;43.73;99051.38;4995079;28;20087;-48
2022/05/12 02:19:33;;;;;;;12.63;3.17;;;;;;;19.45;43.80;99047.63;4995106;28;20028;-49
2022/05/12 02:22:01;;;;;;;17.27;3.42;;;;;;;19.53;43.97;99053.28;4995028;28;20376;-49
2022/05/12 02:24:27;;;;;;;12.93;3.10;;;;;;;19.61;43.59;99056.59;5012599;28;20515;-49
2022/05/12 02:26:53;;;;;;;10.82;2.53;;;;;;;19.56;43.54;99050.16;4994969;28;20109;-48
2022/05/12 02:29:19;;;;;;;10.60;2.83;;;;;;;19.56;43.89;99066.13;5012561;28;20026;-48
2022/05/12 02:31:45;;;;;;;15.20;3.63;;;;;;;19.65;43.92;99068.34;5012498;28;20038;-49
2022/05/12 02:34:10;;;;;;;10.43;2.88;;;;;;;19.71;43.78;99060.16;4995022;28;20034;-48
2022/05/12 02:36:36;;;;;;;17.30;3.40;;;;;;;19.83;43.49;99067.22;5012449;28;20026;-48
2022/05/12 02:39:02;;;;;;;11.07;3.78;;;;;;;19.86;43.44;99061.38;4994731;28;20121;-49
2022/05/12 02:41:28;;;;;;;9.07;3.72;;;;;;;19.87;43.34;99061.13;4994977;28;20049;-49
2022/05/12 02:43:53;;;;;;;13.10;5.15;;;;;;;19.91;43.46;99058.78;5012305;28;20133;-49
2022/05/12 02:46:19;;;;;;;12.52;4.80;;;;;;;19.95;43.03;99059.88;4994548;28;20109;-48
2022/05/12 02:48:47;;;;;;;15.20;4.80;;;;;;;19.82;42.85;99062.94;4994504;28;20021;-49
2022/05/12 02:51:13;;;;;;;13.65;3.55;;;;;;;19.63;43.27;99065.91;5011517;28;20088;-49
2022/05/12 02:53:40;;;;;;;14.52;4.28;;;;;;;19.59;43.31;99064.81;4987925;28;20057;-48
2022/05/12 02:56:07;;;;;;;10.05;3.78;;;;;;;19.59;43.36;99058.69;4971797;28;20023;-48
2022/05/12 02:58:34;;;;;;;14.43;3.92;;;;;;;19.60;43.21;99052.28;4971859;28;20031;-47
2022/05/12 03:01:00;;;;;;;10.02;3.28;;;;;;;19.59;43.34;99064.00;4971817;28;20425;-48
2022/05/12 03:03:26;;;;;;;15.30;3.72;;;;;;;19.49;43.41;99062.84;4972961;28;20031;-49
2022/05/12 03:05:53;;;;;;;19.60;5.13;;;;;;;19.48;43.90;99060.44;4973011;28;20015;-48
2022/05/12 03:08:19;;;;;;;16.20;4.85;;;;;;;19.39;43.96;99068.03;4971711;28;20026;-49
2022/05/12 03:10:48;;;;;;;18.15;6.63;;;;;;;19.38;43.98;99079.75;4971725;28;20026;-48
2022/05/12 03:13:14;;;;;;;13.18;3.20;;;;;;;19.34;43.79;99081.31;4973015;28;20093;-48
2022/05/12 03:15:40;;;;;;;11.35;3.53;;;;;;;19.39;44.66;99077.91;4972950;28;20023;-48
2022/05/12 03:18:06;;;;;;;20.92;6.95;;;;;;;19.48;44.07;99071.09;4972945;28;20111;-48
2022/05/12 03:20:32;;;;;;;17.45;4.97;;;;;;;19.42;44.10;99082.72;4971637;28;20385;-48
2022/05/12 03:22:59;;;;;;;12.63;3.45;;;;;;;19.33;43.94;99083.16;4973058;28;20035;-49
2022/05/12 03:25:24;;;;;;;17.30;3.35;;;;;;;19.31;43.79;99082.59;4972856;28;20023;-48
2022/05/12 03:27:50;;;;;;;12.80;3.90;;;;;;;19.39;44.19;99080.56;4971648;28;20381;-48
2022/05/12 03:30:20;;;;;;;12.00;3.63;;;;;;;19.31;43.84;99082.59;4972786;28;20019;-49
2022/05/12 03:32:46;;;;;;;18.33;5.50;;;;;;;19.37;44.07;99088.78;4972816;28;20086;-48
2022/05/12 03:35:12;;;;;;;18.58;3.25;;;;;;;19.34;44.14;99083.97;4972762;28;20027;-49
2022/05/12 03:37:39;;;;;;;11.10;3.65;;;;;;;19.35;43.83;99090.88;4972822;28;20054;-49
2022/05/12 03:40:07;;;;;;;8.70;3.72;;;;;;;19.46;43.58;99087.31;4971416;28;20025;-48
2022/05/12 03:42:33;;;;;;;23.48;8.48;;;;;;;19.37;44.09;99091.44;4972709;28;20027;-48
2022/05/12 03:44:59;;;;;;;12.15;3.30;;;;;;;19.26;43.99;99090.53;4972597;28;20027;-49
2022/05/12 03:47:25;;;;;;;8.00;2.75;;;;;;;19.20;44.03;99096.84;4972727;28;20035;-48
2022/05/12 03:50:04;;;;;;;11.57;3.05;;;;;;;19.12;44.29;99090.06;4971410;28;20029;-48
2022/05/12 03:52:31;;;;;;;12.73;3.33;;;;;;;19.11;44.58;99092.97;4972742;28;20410;-49
2022/05/12 03:54:57;;;;;;;13.95;3.20;;;;;;;19.25;44.42;99094.22;4971159;28;20534;-48
2022/05/12 03:57:26;;;;;;;13.48;3.38;;;;;;;19.31;44.02;99097.75;4971338;28;20122;-49
2022/05/12 03:59:52;;;;;;;30.67;12.13;;;;;;;19.30;43.96;99086.31;4972622;28;20022;-48
2022/05/12 04:02:19;;;;;;;20.90;8.52;;;;;;;19.30;44.00;99088.97;4973914;28;20027;-49
2022/05/12 04:04:46;;;;;;;72.95;33.63;;;;;;;19.27;44.87;99099.31;4976069;28;20026;-49
2022/05/12 04:07:15;;;;;;;22.35;8.02;;;;;;;19.10;44.43;99099.38;4974760;28;20583;-49
2022/05/12 04:09:41;;;;;;;16.35;4.10;;;;;;;19.03;44.60;99096.06;4976087;28;20066;-49
2022/05/12 04:12:09;;;;;;;41.13;18.10;;;;;;;19.05;45.07;99091.31;4974730;28;20023;-48
2022/05/12 04:14:37;;;;;;;9.50;3.47;;;;;;;19.11;44.74;99098.31;4975995;28;20035;-48
2022/05/12 04:17:03;;;;;;;28.05;8.25;;;;;;;19.13;44.81;99096.19;4976204;28;20023;-49
2022/05/12 04:19:29;;;;;;;30.95;14.38;;;;;;;19.20;44.84;99096.84;4975913;28;20022;-49
2022/05/12 04:21:55;;;;;;;63.75;31.58;;;;;;;19.26;45.51;99103.03;4975865;28;20022;-48
2022/05/12 04:24:21;;;;;;;53.88;20.80;;;;;;;19.27;45.17;99101.97;4976042;28;20468;-48
2022/05/12 04:26:47;;;;;;;30.45;13.85;;;;;;;19.20;44.85;99101.34;4975764;28;20030;-49
2022/05/12 04:29:14;;;;;;;58.40;25.20;;;;;;;19.20;44.85;99096.84;4975801;28;20023;-49
2022/05/12 04:31:40;;;;;;;28.63;10.15;;;;;;;19.18;44.69;99100.81;4975715;28;20086;-48
2022/05/12 04:36:51;;;;;;;24.13;7.10;;;;;;;19.00;45.05;99096.56;4975945;28;20123;-49
2022/05/12 04:39:17;;;;;;;19.83;3.80;;;;;;;19.06;44.68;99104.38;4975579;28;20101;-49
2022/05/12 04:41:44;;;;;;;83.20;33.95;;;;;;;19.28;44.83;99109.72;4975505;28;20027;-48
2022/05/12 04:44:11;;;;;;;118.88;25.27;;;;;;;19.84;44.00;99098.94;4975365;28;20026;-48
2022/05/12 04:46:39;;;;;;;35.40;5.18;;;;;;;20.43;42.28;99092.81;4975393;28;20101;-49
2022/05/12 04:49:06;;;;;;;23.73;6.32;;;;;;;20.86;41.37;99090.97;4974197;28;20023;-49
2022/05/12 04:51:32;;;;;;;44.50;13.65;;;;;;;21.23;40.96;99094.63;4974037;28;20118;-49
2022/05/12 04:53:59;;;;;;;33.47;7.70;;;;;;;21.56;40.02;99093.47;4992426;28;20122;-49
2022/05/12 04:56:25;;;;;;;24.48;4.72;;;;;;;21.89;39.14;99099.44;5014220;28;20032;-48
2022/05/12 04:58:51;;;;;;;82.13;30.48;;;;;;;22.17;39.17;99089.31;4996562;28;20109;-49
2022/05/12 05:01:17;;;;;;;27.13;5.22;;;;;;;22.49;39.00;99084.53;5014037;28;20049;-49
2022/05/12 05:03:43;;;;;;;36.63;10.80;;;;;;;22.89;37.75;99095.44;5014093;28;20458;-49
2022/05/12 05:06:10;;;;;;;76.60;26.85;;;;;;;22.95;38.02;99097.03;5014026;28;20496;-49
2022/05/12 05:08:36;;;;;;;34.13;10.27;;;;;;;23.11;37.95;99098.63;5014006;28;20064;-49
2022/05/12 05:11:06;;;;;;;22.85;4.25;;;;;;;23.26;36.40;99096.97;5014142;28;20126;-49
2022/05/12 05:13:32;;;;;;;18.98;4.13;;;;;;;22.97;36.60;99102.13;5012984;28;20458;-49
2022/05/12 05:15:58;;;;;;;17.42;3.78;;;;;;;23.02;36.78;99102.13;5013871;28;20037;-49
2022/05/12 05:18:24;;;;;;;13.02;3.45;;;;;;;23.46;35.64;99112.97;5013841;28;20032;-49
2022/05/12 05:20:50;;;;;;;19.63;3.65;;;;;;;23.84;35.56;99112.53;4996060;28;20399;-49
2022/05/12 05:23:18;;;;;;;17.23;3.88;;;;;;;24.37;34.08;99109.19;4996011;28;20025;-49
2022/05/12 05:25:43;;;;;;;17.42;4.60;;;;;;;24.45;34.42;99114.00;5013671;28;20068;-49
2022/05/12 05:28:10;;;;;;;17.17;3.72;;;;;;;24.52;38.66;99115.28;5013637;28;20022;-48
2022/05/12 05:30:37;;;;;;;29.33;5.03;;;;;;;24.61;37.90;99117.34;4995974;28;20026;-48
2022/05/12 05:33:03;;;;;;;15.85;3.70;;;;;;;24.79;37.77;99113.16;5013557;28;20072;-49
2022/05/12 05:35:29;;;;;;;23.65;4.72;;;;;;;24.94;36.02;99133.69;5013503;28;20026;-49
2022/05/12 05:37:55;;;;;;;15.57;3.25;;;;;;;24.74;37.68;99123.97;5013421;28;20395;-49
2022/05/12 05:40:25;;;;;;;17.88;4.05;;;;;;;24.56;35.13;99118.19;4995740;28;20336;-49
2022/05/12 05:42:52;;;;;;;19.60;4.22;;;;;;;24.80;34.29;99126.31;5013388;28;20026;-49
2022/05/12 05:45:19;;;;;;;11.85;3.75;;;;;;;25.10;33.42;99111.75;5013191;28;20033;-49
2022/05/12 05:47:47;;;;;;;25.38;6.30;;;;;;;25.37;33.58;99117.66;5013213;28;20106;-49
2022/05/12 05:50:16;;;;;;;13.68;3.67;;;;;;;25.90;32.89;99106.78;5013186;28;20046;-49
2022/05/12 05:55:26;;;;;;;16.80;4.57;;;;;;;27.74;29.00;99128.84;5013197;28;20045;-48
2022/05/12 05:57:52;;;;;;;30.92;5.57;;;;;;;28.20;29.29;99133.22;4995453;28;20018;-49
2022/05/12 06:00:19;;;;;;;25.23;4.40;;;;;;;28.68;28.07;99132.63;5013057;28;20022;-49
2022/05/12 06:02:46;;;;;;;37.03;4.85;;;;;;;28.45;27.63;99135.31;5013161;28;20072;-49
2022/05/12 06:05:11;;;;;;;42.80;5.43;;;;;;;28.02;28.76;99133.09;4995265;28;20029;-50
2022/05/12 06:07:39;;;;;;;44.15;4.82;;;;;;;28.31;28.33;99139.19;5012929;28;20037;-48
2022/05/12 06:10:06;;;;;;;42.60;6.55;;;;;;;28.47;28.06;99143.91;5012889;28;20133;-49
2022/05/12 06:12:33;;;;;;;32.42;5.13;;;;;;;28.79;27.95;99147.44;4995183;28;20117;-50
2022/05/12 06:14:59;;;;;;;13.43;3.90;;;;;;;29.38;26.61;99151.84;5012827;28;20439;-49
2022/05/12 06:17:26;;;;;;;31.73;7.15;;;;;;;29.58;26.52;99142.34;5012721;28;20072;-49
2022/05/12 06:19:52;;;;;;;30.67;4.38;;;;;;;29.68;26.19;99156.38;5012716;28;20030;-49
2022/05/12 06:22:20;;;;;;;32.42;9.20;;;;;;;29.61;26.57;99139.81;5012675;28;20045;-49
2022/05/12 06:24:47;;;;;;;30.23;4.25;;;;;;;30.56;25.36;99140.19;5012407;28;20394;-50
2022/05/12 06:27:19;;;;;;;28.42;5.15;;;;;;;31.47;24.50;99150.88;5012617;28;20395;-49
2022/05/12 06:29:45;;;;;;;20.13;3.92;;;;;;;32.01;23.49;99143.66;5012488;28;20093;-50
2022/05/12 06:32:12;;;;;;;27.23;4.32;;;;;;;32.33;23.08;99143.22;5012499;28;20022;-50
2022/05/12 06:34:42;;;;;;;14.68;4.03;;;;;;;32.97;22.49;99144.66;5012332;28;20096;-49
2022/05/12 06:37:08;;;;;;;25.52;3.95;;;;;;;33.37;21.93;99133.91;5012430;28;20029;-50
2022/05/12 06:39:34;;;;;;;18.42;3.42;;;;;;;32.65;21.99;99133.50;5012434;28;20093;-50
2022/05/12 06:42:01;;;;;;;25.98;4.40;;;;;;;32.51;22.36;99139.19;5012393;28;20040;-49
2022/05/12 06:44:27;;;;;;;21.08;4.15;;;;;;;32.47;22.42;99137.50;5012189;28;20060;-49
2022/05/12 06:46:53;;;;;;;21.98;3.60;;;;;;;33.21;21.78;99130.28;5012223;28;20022;-49
2022/05/12 06:49:20;;;;;;;31.25;6.57;;;;;;;34.12;20.91;99129.09;5012293;28;20447;-48
2022/05/12 06:51:46;;;;;;;22.25;4.38;;;;;;;34.71;20.35;99131.13;5012239;28;20447;-49
2022/05/12 06:54:13;;;;;;;37.78;7.45;;;;;;;34.46;20.75;99135.88;5011926;28;20511;-49
2022/05/12 06:56:41;;;;;;;35.72;9.32;;;;;;;33.82;21.14;99141.09;5012157;28;20431;-49
2022/05/12 06:59:07;;;;;;;26.00;7.80;;;;;;;33.01;22.20;99148.28;4994861;28;20025;-49
2022/05/12 07:01:34;;;;;;;17.00;4.47;;;;;;;32.13;22.61;99151.06;5012117;28;20068;-49
2022/05/12 07:04:00;;;;;;;21.38;4.57;;;;;;;31.58;23.76;99154.81;5012015;28;20403;-49
2022/05/12 07:06:27;;;;;;;30.67;6.72;;;;;;;30.97;24.30;99155.06;4994374;28;20022;-50
2022/05/12 07:08:53;;;;;;;29.55;5.43;;;;;;;30.77;24.59;99161.97;5012071;28;20482;-49
2022/05/12 07:11:19;;;;;;;14.10;3.15;;;;;;;30.84;24.34;99157.63;5012107;28;20093;-49
2022/05/12 07:13:46;;;;;;;28.55;5.10;;;;;;;31.06;24.23;99158.53;5012028;28;20038;-50
2022/05/12 07:16:12;;;;;;;28.05;5.00;;;;;;;31.29;23.88;99164.53;5011992;28;20446;-50
2022/05/12 07:18:38;;;;;;;15.88;3.90;;;;;;;31.72;23.49;99157.28;5011920;28;20030;-49
2022/05/12 07:26:40;;;;;;;15.02;3.17;;;;;;;32.56;22.43;99160.78;5012210;28;20060;-50
2022/05/12 07:29:17;;;;;;;20.48;4.50;;;;;;;32.73;22.52;99165.22;5011922;28;20042;-49
2022/05/12 07:31:43;;;;;;;21.15;6.60;;;;;;;32.62;22.68;99166.78;5011941;28;20057;-50
2022/05/12 07:34:09;;;;;;;14.88;3.05;;;;;;;32.17;22.63;99167.50;5011844;28;20033;-49
2022/05/12 07:36:42;;;;;;;9.95;2.85;;;;;;;32.04;23.11;99167.44;5013432;28;20403;-50
2022/05/12 07:39:11;;;;;;;14.63;3.47;;;;;;;32.62;22.33;99166.78;5015769;28;20044;-49
2022/05/12 07:41:41;;;;;;;12.63;3.20;;;;;;;33.20;22.27;99164.88;5015598;28;20022;-49
2022/05/12 07:44:18;;;;;;;9.07;2.53;;;;;;;33.60;21.25;99168.78;4997937;28;20517;-50
2022/05/12 07:46:45;;;;;;;5.15;2.17;;;;;;;33.32;20.84;99158.59;5015585;28;20084;-49
2022/05/12 07:49:12;;;;;;;7.63;2.72;;;;;;;33.12;22.05;99179.38;5015522;28;20434;-50
2022/05/12 07:51:38;;;;;;;15.38;6.68;;;;;;;33.70;21.23;99165.63;5015498;28;20097;-50
2022/05/12 07:54:04;;;;;;;12.07;3.28;;;;;;;34.19;20.63;99167.47;5015228;28;20054;-50
2022/05/12 07:56:31;;;;;;;11.57;3.50;;;;;;;34.08;20.82;99155.44;5015359;28;20029;-50
2022/05/12 07:58:59;;;;;;;14.70;3.20;;;;;;;34.20;21.16;99163.59;4997677;28;20033;-49
2022/05/12 08:01:26;;;;;;;14.00;2.83;;;;;;;34.67;20.44;99160.22;4997655;28;20026;-50
2022/05/12 08:03:52;;;;;;;16.02;4.57;;;;;;;34.95;20.62;99151.16;5015148;28;20113;-51
2022/05/12 08:06:19;;;;;;;15.15;3.65;;;;;;;34.99;19.80;99152.03;5015188;28;20022;-50
2022/05/12 08:08:46;;;;;;;12.30;3.35;;;;;;;34.11;21.21;99146.56;5015187;28;20045;-49
2022/05/12 08:11:13;;;;;;;11.65;3.97;;;;;;;34.38;21.25;99155.91;5015123;28;20018;-49
2022/05/12 08:13:40;;;;;;;13.02;4.60;;;;;;;35.00;20.21;99145.44;5015035;28;20034;-50
2022/05/12 08:16:07;;;;;;;15.32;4.88;;;;;;;35.32;19.73;99146.22;4997371;28;20503;-50
2022/05/12 08:18:35;;;;;;;20.13;5.50;;;;;;;35.40;19.31;99145.25;5014911;28;20113;-50
2022/05/12 08:21:01;;;;;;;37.72;5.65;;;;;;;35.52;19.53;99138.88;5014906;28;20042;-50
2022/05/12 08:23:27;;;;;;;13.32;4.60;;;;;;;35.73;19.13;99141.28;5014804;28;20446;-50
2022/05/12 08:25:53;;;;;;;17.45;4.38;;;;;;;35.77;19.00;99130.44;5014785;28;20030;-50
2022/05/12 08:28:23;;;;;;;23.35;4.95;;;;;;;36.34;18.58;99137.09;5014800;28;20077;-50
2022/05/12 08:30:50;;;;;;;15.80;4.18;;;;;;;35.63;18.86;99141.84;5014705;28;20014;-49
2022/05/12 08:33:16;;;;;;;14.43;3.40;;;;;;;34.50;20.06;99136.75;4997050;28;20026;-50
2022/05/12 08:35:43;;;;;;;16.80;3.15;;;;;;;34.84;20.02;99145.44;4996973;28;20025;-50
2022/05/12 08:38:10;;;;;;;17.55;4.07;;;;;;;35.83;18.42;99145.41;4980786;28;20030;-50
2022/05/12 08:40:54;;;;;;;13.00;3.00;;;;;;;34.42;19.61;99138.50;5014471;28;20022;-50
2022/05/12 08:43:25;;;;;;;13.25;2.97;;;;;;;33.01;20.74;99138.19;5014449;28;20037;-50
2022/05/12 08:45:55;;;;;;;10.73;4.10;;;;;;;32.21;21.80;99138.53;5014551;28;20030;-49
2022/05/12 08:48:21;;;;;;;8.82;3.00;;;;;;;31.25;22.72;99148.09;5013066;28;20026;-50
2022/05/12 08:50:52;;;;;;;13.10;3.45;;;;;;;30.17;24.23;99147.38;5014401;28;20021;-49
2022/05/12 08:53:22;;;;;;;15.00;2.63;;;;;;;29.31;24.87;99156.94;5014367;28;20038;-49
2022/05/12 08:55:52;;;;;;;14.45;2.90;;;;;;;28.82;25.72;99141.44;5014294;28;20030;-49
2022/05/12 08:58:35;;;;;;;17.45;3.58;;;;;;;28.44;26.19;99149.91;5014264;28;20014;-50
2022/05/12 09:01:23;;;;;;;9.27;2.65;;;;;;;28.18;26.27;99155.13;4996927;28;20124;-50
2022/05/12 09:04:17;;;;;;;12.23;3.92;;;;;;;27.93;26.74;99159.22;5013837;28;20080;-50
2022/05/12 09:06:49;;;;;;;19.85;4.32;;;;;;;27.80;27.52;99160.78;5014055;28;20377;-50
2022/05/12 09:10:03;;;;;;;9.00;2.90;;;;;;;28.15;28.18;99171.13;4996445;28;20034;-49
2022/05/12 09:12:31;;;;;;;8.65;2.92;;;;;;;29.55;26.39;99167.34;4991137;28;20176;-50
2022/05/12 09:15:26;;;;;;;17.00;2.75;;;;;;;31.51;24.42;99160.75;5013875;28;20083;-50
2022/05/12 09:18:01;;;;;;;21.02;5.70;;;;;;;34.87;20.41;99149.41;5013894;28;20026;-50
2022/05/12 09:20:30;;;;;;;10.18;2.72;;;;;;;36.23;18.62;99155.22;5013736;28;20072;-50
2022/05/12 09:22:58;;;;;;;6.20;2.60;;;;;;;36.38;17.98;99143.41;5012465;28;20038;-50
2022/05/12 09:25:43;;;;;;;12.13;3.20;;;;;;;36.41;18.02;99158.28;5013603;28;20572;-50
2022/05/12 09:28:40;;;;;;;13.93;3.05;;;;;;;36.98;17.68;99144.81;5013738;28;20033;-49
2022/05/12 09:31:12;;;;;;;10.52;2.78;;;;;;;37.21;17.25;99146.75;5013630;28;20023;-50
2022/05/12 09:33:38;;;;;;;25.67;3.65;;;;;;;37.61;17.27;99138.00;5013554;28;20055;-50
2022/05/12 09:36:36;;;;;;;16.63;3.08;;;;;;;38.09;16.74;99151.94;5013559;28;20376;-50
2022/05/12 09:39:03;;;;;;;16.42;5.25;;;;;;;37.55;16.94;99136.69;4990823;28;20073;-50
2022/05/12 09:41:46;;;;;;;15.05;3.60;;;;;;;37.44;17.56;99131.06;5013618;28;20077;-50
2022/05/12 09:44:21;;;;;;;14.18;2.90;;;;;;;37.18;17.29;99129.91;5013396;28;20037;-50
2022/05/12 09:47:13;;;;;;;20.83;4.57;;;;;;;36.87;18.12;99122.00;5013576;28;20042;-50
2022/05/12 09:49:44;;;;;;;11.18;3.92;;;;;;;37.04;17.52;99117.94;5013522;28;20033;-50
2022/05/12 09:52:31;;;;;;;16.55;4.85;;;;;;;36.71;17.65;99113.91;5013302;28;20030;-50
2022/05/12 09:55:14;;;;;;;17.65;4.35;;;;;;;36.27;18.10;99125.22;5013000;28;20046;-50
2022/05/12 09:58:01;;;;;;;11.80;3.28;;;;;;;36.58;18.29;99130.47;4995478;28;20022;-50
2022/05/12 10:00:41;;;;;;;16.63;3.72;;;;;;;36.77;18.15;99126.91;5012653;28;20026;-50
2022/05/12 10:09:08;;;;;;;10.88;2.55;;;;;;;36.86;18.17;99114.94;5013030;28;20037;-51
2022/05/12 10:11:53;;;;;;;11.10;2.35;;;;;;;36.82;17.29;99116.81;4995261;28;20477;-50
2022/05/12 10:14:46;;;;;;;24.23;3.35;;;;;;;35.93;17.61;99106.59;5012772;28;20029;-49
2022/05/12 10:17:24;;;;;;;12.18;3.15;;;;;;;34.98;18.69;99115.00;4997079;28;20032;-50
2022/05/12 10:19:51;;;;;;;9.23;2.97;;;;;;;34.58;19.37;99102.31;4995096;28;20122;-50
2022/05/12 10:22:35;;;;;;;20.48;3.35;;;;;;;34.94;19.78;99111.41;5012662;28;20026;-50
2022/05/12 10:25:06;;;;;;;;;;;;;;;35.45;18.14;99107.91;5013119;28;20542;-49
2022/05/12 10:27:56;;;;;;;13.85;2.70;;;;;;;35.13;17.89;99092.34;5012701;28;19913;-49
2022/05/12 10:30:52;;;;;;;11.50;2.67;;;;;;;35.25;18.50;99099.66;5012591;28;20483;-49
2022/05/12 10:33:27;;;;;;;11.80;2.63;;;;;;;35.86;17.92;99092.00;5012566;28;20072;-50
2022/05/12 10:36:12;;;;;;;10.32;2.33;;;;;;;35.35;17.91;99095.59;4994904;28;20464;-49
2022/05/12 10:38:57;;;;;;;13.55;2.13;;;;;;;34.46;18.31;99061.50;5012534;28;20060;-49
2022/05/12 10:41:35;;;;;;;8.05;2.25;;;;;;;33.39;19.29;99101.69;5012444;28;20549;-49
2022/05/12 10:44:26;;;;;;;10.27;2.45;;;;;;;32.86;20.10;99092.66;5012305;28;20496;-49
2022/05/12 10:47:06;;;;;;;12.70;3.10;;;;;;;33.13;19.28;99084.97;5012395;28;20148;-49
2022/05/12 10:50:09;;;;;;;14.38;2.65;;;;;;;32.94;20.58;99093.66;5012336;28;20026;-50
2022/05/12 10:53:02;;;;;;;9.93;2.90;;;;;;;33.77;19.65;99086.13;5012231;28;20109;-50
2022/05/12 10:55:52;;;;;;;16.63;2.90;;;;;;;33.95;17.94;99081.16;4994528;28;20046;-51
2022/05/12 10:58:43;;;;;;;16.80;3.00;;;;;;;33.31;17.26;99093.69;5012243;28;20030;-50
2022/05/12 11:01:27;;;;;;;14.02;2.22;;;;;;;33.00;18.50;99074.06;5012089;28;20029;-50
2022/05/12 11:04:00;;;;;;;8.50;2.65;;;;;;;33.05;18.77;99051.28;5012127;28;20033;-49
2022/05/12 11:06:38;;;;;;;11.70;3.20;;;;;;;33.14;18.70;99067.50;5012131;28;20121;-49
2022/05/12 11:09:26;;;;;;;9.95;1.95;;;;;;;33.42;18.11;99081.97;4994451;28;20691;-49
2022/05/12 11:11:58;;;;;;;10.52;1.95;;;;;;;33.30;17.65;99053.97;4993154;28;20046;-49
2022/05/12 11:14:34;;;;;;;11.13;1.92;;;;;;;32.84;17.12;99054.13;5012048;28;20026;-50
2022/05/12 11:17:25;;;;;;;16.33;2.22;;;;;;;32.64;18.44;99053.09;5012496;28;20037;-49
2022/05/12 11:20:20;;;;;;;9.25;2.53;;;;;;;32.21;17.89;99059.78;4997994;28;20117;-49
2022/05/12 11:23:12;;;;;;;14.35;2.90;;;;;;;32.42;18.73;99059.72;5011932;28;20109;-49
2022/05/12 11:25:40;;;;;;;8.38;2.10;;;;;;;32.53;17.13;99063.56;5011960;28;20406;-49
2022/05/12 11:31:42;;;;;;;10.20;2.75;;;;;;;32.14;18.37;99054.13;5012194;28;20614;-49
2022/05/12 11:34:14;;;;;;;13.38;2.60;;;;;;;32.50;17.95;99037.09;5011914;28;20441;-49
2022/05/12 11:36:46;;;;;;;8.68;2.13;;;;;;;32.32;17.82;99044.66;4994224;28;20053;-49
2022/05/12 11:39:24;;;;;;;11.90;2.85;;;;;;;31.97;17.94;99042.25;5011756;28;20025;-49
2022/05/12 11:42:10;;;;;;;11.48;2.50;;;;;;;32.35;18.24;99037.75;4994145;28;20586;-50
2022/05/12 11:44:55;;;;;;;9.43;2.22;;;;;;;33.09;17.88;99027.72;5011702;28;20030;-49
2022/05/12 11:47:54;;;;;;;10.40;2.55;;;;;;;33.47;17.90;99033.91;5011631;28;20510;-49
2022/05/12 11:50:56;;;;;;;8.70;1.92;;;;;;;33.75;17.46;99033.94;5011684;28;20036;-50
2022/05/12 11:53:50;;;;;;;14.68;2.38;;;;;;;33.38;17.62;99028.56;5011665;28;20114;-49
2022/05/12 11:56:32;;;;;;;;;;;;;;;33.87;17.61;99012.09;5012030;28;20080;-50
2022/05/12 11:59:24;;;;;;;13.38;2.70;;;;;;;33.82;17.97;99015.06;5011641;28;19944;-50
2022/05/12 12:02:28;;;;;;;7.60;2.50;;;;;;;33.97;18.25;99006.13;5011705;28;20033;-50
2022/05/12 12:05:05;;;;;;;10.68;2.63;;;;;;;34.20;17.66;99009.09;4979753;28;20411;-50